createdAt,value
2023-04-29T00:01:14.577Z,30.43
2023-04-29T00:03:41.684Z,28.50
2023-04-29T00:06:08.507Z,33.30
2023-04-29T00:08:35.143Z,28.80
2023-04-29T00:11:01.644Z,40.40
2023-04-29T00:13:28.413Z,37.27
2023-04-29T00:15:55.034Z,31.57
2023-04-29T00:18:21.709Z,33.70
2023-04-29T00:20:48.219Z,37.17
2023-04-29T00:23:14.748Z,36.43
2023-04-29T00:25:41.316Z,33.90
2023-04-29T00:28:07.955Z,35.10
2023-04-29T00:30:34.791Z,36.00
2023-04-29T00:33:01.605Z,32.60
2023-04-29T00:35:28.461Z,41.97
2023-04-29T00:37:55.128Z,36.70
2023-04-29T00:40:21.932Z,37.10
2023-04-29T00:42:48.592Z,41.00
2023-04-29T00:45:15.183Z,41.47
2023-04-29T00:47:42.009Z,40.33
2023-04-29T00:50:08.889Z,37.73
2023-04-29T00:52:35.432Z,44.27
2023-04-29T00:55:01.979Z,41.57
2023-04-29T00:57:31.654Z,45.53
2023-04-29T00:59:59.343Z,43.73
2023-04-29T01:02:26.815Z,48.03
2023-04-29T01:04:53.759Z,54.13
2023-04-29T01:07:21.143Z,42.30
2023-04-29T01:09:48.726Z,47.60
2023-04-29T01:12:15.276Z,46.33
2023-04-29T01:14:41.811Z,47.73
2023-04-29T01:17:08.382Z,48.73
2023-04-29T01:19:34.945Z,47.93
2023-04-29T01:22:01.453Z,56.63
2023-04-29T01:24:28.041Z,56.53
2023-04-29T01:26:54.820Z,65.07
2023-04-29T01:29:21.757Z,58.63
2023-04-29T01:31:48.379Z,52.20
2023-04-29T01:34:15.023Z,56.53
2023-04-29T01:36:41.562Z,54.17
2023-04-29T01:39:08.339Z,58.53
2023-04-29T01:41:34.859Z,55.80
2023-04-29T01:44:01.773Z,59.17
2023-04-29T01:46:28.482Z,56.20
2023-04-29T01:48:55.468Z,54.53
2023-04-29T01:51:22.056Z,53.07
2023-04-29T01:53:49.182Z,66.80
2023-04-29T01:56:16.037Z,61.33
2023-04-29T01:58:42.630Z,51.87
2023-04-29T02:01:10.354Z,57.20
2023-04-29T02:03:37.148Z,47.60
2023-04-29T02:06:04.341Z,45.60
2023-04-29T02:08:30.944Z,50.37
2023-04-29T02:10:57.518Z,54.03
2023-04-29T02:13:24.134Z,54.57
2023-04-29T02:15:50.707Z,49.30
2023-04-29T02:18:17.269Z,47.40
2023-04-29T02:20:43.865Z,45.27
2023-04-29T02:23:10.750Z,47.23
2023-04-29T02:25:37.370Z,52.10
2023-04-29T02:28:03.946Z,62.60
2023-04-29T02:30:30.577Z,55.50
2023-04-29T02:32:57.176Z,58.13
2023-04-29T02:35:23.804Z,56.90
2023-04-29T02:37:50.380Z,51.60
2023-04-29T02:40:16.938Z,65.00
2023-04-29T02:42:43.549Z,59.03
2023-04-29T02:45:12.662Z,60.23
2023-04-29T02:47:39.190Z,56.73
2023-04-29T02:50:06.039Z,59.40
2023-04-29T02:52:32.675Z,46.83
2023-04-29T02:54:59.245Z,58.70
2023-04-29T02:57:25.888Z,57.53
2023-04-29T02:59:52.919Z,61.87
2023-04-29T03:02:19.820Z,51.60
2023-04-29T03:04:46.688Z,55.83
2023-04-29T03:07:13.201Z,57.27
2023-04-29T03:09:39.761Z,61.50
2023-04-29T03:12:06.278Z,62.33
2023-04-29T03:14:32.882Z,74.67
2023-04-29T03:16:59.528Z,67.73
2023-04-29T03:19:26.215Z,60.20
2023-04-29T03:21:54.009Z,69.77
2023-04-29T03:24:20.780Z,60.00
2023-04-29T03:26:47.384Z,70.97
2023-04-29T03:29:13.867Z,82.60
2023-04-29T03:31:40.522Z,77.33
2023-04-29T03:34:07.214Z,91.63
2023-04-29T03:36:33.741Z,72.47
2023-04-29T03:39:00.343Z,81.70
2023-04-29T03:41:27.012Z,92.20
2023-04-29T03:43:54.762Z,94.63
2023-04-29T03:46:21.809Z,94.43
2023-04-29T03:48:48.413Z,87.43
2023-04-29T03:51:14.956Z,78.57
2023-04-29T03:53:41.483Z,71.47
2023-04-29T03:56:07.975Z,65.60
2023-04-29T03:58:34.564Z,54.43
2023-04-29T04:01:01.059Z,70.37
2023-04-29T04:03:28.259Z,70.67
2023-04-29T04:05:55.061Z,55.13
2023-04-29T04:08:21.743Z,54.80
2023-04-29T04:10:48.355Z,56.87
2023-04-29T04:13:15.410Z,57.03
2023-04-29T04:15:42.455Z,63.27
2023-04-29T04:18:09.069Z,85.33
2023-04-29T04:20:35.752Z,74.27
2023-04-29T04:23:02.337Z,68.17
2023-04-29T04:25:30.199Z,63.40
2023-04-29T04:27:56.698Z,45.40
2023-04-29T04:30:23.282Z,59.20
2023-04-29T04:32:49.875Z,47.27
2023-04-29T04:35:16.481Z,54.13
2023-04-29T04:37:43.004Z,53.50
2023-04-29T04:40:11.263Z,44.43
2023-04-29T04:42:37.819Z,43.30
2023-04-29T04:45:04.351Z,43.10
2023-04-29T04:47:31.004Z,45.30
2023-04-29T04:49:57.504Z,48.57
2023-04-29T04:52:24.000Z,53.70
2023-04-29T04:54:50.641Z,42.13
2023-04-29T04:57:17.233Z,50.63
2023-04-29T04:59:44.158Z,52.30
2023-04-29T05:02:11.192Z,57.90
2023-04-29T05:04:37.902Z,55.93
2023-04-29T05:07:04.822Z,50.93
2023-04-29T05:09:32.537Z,55.03
2023-04-29T05:11:59.720Z,72.90
2023-04-29T05:14:26.426Z,52.53
2023-04-29T05:16:53.472Z,59.57
2023-04-29T05:19:20.154Z,57.47
2023-04-29T05:21:46.664Z,70.20
2023-04-29T05:24:13.235Z,54.77
2023-04-29T05:26:39.813Z,48.20
2023-04-29T05:29:06.376Z,47.20
2023-04-29T05:31:33.437Z,46.00
2023-04-29T05:34:00.007Z,48.27
2023-04-29T05:36:27.880Z,86.90
2023-04-29T05:38:54.515Z,54.97
2023-04-29T05:41:21.448Z,46.60
2023-04-29T05:43:48.008Z,41.23
2023-04-29T05:46:14.603Z,141.33
2023-04-29T05:48:41.249Z,44.53
2023-04-29T05:51:07.787Z,50.47
2023-04-29T05:53:35.681Z,44.97
2023-04-29T05:56:06.502Z,64.20
2023-04-29T05:58:33.263Z,33.23
2023-04-29T06:01:00.277Z,42.70
2023-04-29T06:03:27.449Z,32.67
2023-04-29T06:05:54.340Z,34.07
2023-04-29T06:08:21.217Z,44.33
2023-04-29T06:10:47.859Z,40.10
2023-04-29T06:13:14.387Z,51.93
2023-04-29T06:15:40.903Z,57.60
2023-04-29T06:18:07.649Z,66.53
2023-04-29T06:20:36.816Z,64.50
2023-04-29T06:23:05.244Z,67.70
2023-04-29T06:25:31.778Z,67.63
2023-04-29T06:27:58.310Z,78.23
2023-04-29T06:30:24.879Z,63.50
2023-04-29T06:32:51.827Z,73.73
2023-04-29T06:35:18.480Z,80.50
2023-04-29T06:37:45.405Z,72.50
2023-04-29T06:40:11.971Z,77.30
2023-04-29T06:42:38.696Z,72.03
2023-04-29T06:45:05.276Z,73.37
2023-04-29T06:47:32.980Z,75.43
2023-04-29T06:49:59.719Z,81.20
2023-04-29T06:52:26.255Z,60.67
2023-04-29T06:54:52.813Z,72.97
2023-04-29T06:57:20.644Z,66.13
2023-04-29T06:59:47.261Z,61.90
2023-04-29T07:02:13.939Z,57.30
2023-04-29T07:04:40.943Z,48.10
2023-04-29T07:07:07.584Z,50.90
2023-04-29T07:09:34.126Z,48.13
2023-04-29T07:12:02.603Z,50.80
2023-04-29T07:14:29.130Z,53.73
2023-04-29T07:16:55.882Z,52.33
2023-04-29T07:19:22.488Z,49.17
2023-04-29T07:21:49.029Z,51.73
2023-04-29T07:24:15.609Z,54.83
2023-04-29T07:26:42.539Z,46.57
2023-04-29T07:29:09.031Z,51.70
2023-04-29T07:31:38.064Z,45.17
2023-04-29T07:34:05.128Z,49.63
2023-04-29T07:36:33.003Z,45.77
2023-04-29T07:38:59.726Z,48.93
2023-04-29T07:41:26.245Z,53.53
2023-04-29T07:43:52.811Z,39.97
2023-04-29T07:46:19.431Z,39.90
2023-04-29T07:48:46.090Z,38.63
2023-04-29T07:51:12.617Z,35.67
2023-04-29T07:53:39.171Z,50.77
2023-04-29T07:56:06.058Z,39.90
2023-04-29T07:58:32.629Z,42.00
2023-04-29T08:00:59.189Z,49.50
2023-04-29T08:03:25.826Z,55.33
2023-04-29T08:05:53.574Z,30.93
2023-04-29T08:08:20.339Z,38.70
2023-04-29T08:10:47.070Z,37.60
2023-04-29T08:13:13.661Z,44.33
2023-04-29T08:15:40.307Z,36.47
2023-04-29T08:18:06.889Z,34.13
2023-04-29T08:20:33.728Z,42.30
2023-04-29T08:23:03.973Z,40.47
2023-04-29T08:25:30.519Z,44.60
2023-04-29T08:27:57.813Z,48.73
2023-04-29T08:30:24.644Z,46.10
2023-04-29T08:32:51.289Z,42.70
2023-04-29T08:35:17.863Z,49.53
2023-04-29T08:37:44.447Z,39.47
2023-04-29T08:40:11.110Z,42.17
2023-04-29T08:42:37.648Z,69.27
2023-04-29T08:45:04.263Z,30.70
2023-04-29T08:47:30.989Z,44.93
2023-04-29T08:49:57.641Z,42.17
2023-04-29T08:52:24.192Z,41.70
2023-04-29T08:54:50.858Z,28.60
2023-04-29T08:57:17.459Z,41.13
2023-04-29T08:59:44.281Z,36.40
2023-04-29T09:02:10.970Z,32.57
2023-04-29T09:04:37.512Z,30.63
2023-04-29T09:07:04.140Z,70.27
2023-04-29T09:09:30.952Z,32.20
2023-04-29T09:11:57.522Z,75.33
2023-04-29T09:14:24.607Z,47.73
2023-04-29T09:16:51.646Z,35.23
2023-04-29T09:19:18.218Z,30.70
2023-04-29T09:21:44.808Z,35.23
2023-04-29T09:24:11.351Z,33.33
2023-04-29T09:26:37.855Z,131.97
2023-04-29T09:29:04.565Z,127.83
2023-04-29T09:31:31.177Z,47.93
2023-04-29T09:33:58.884Z,37.60
2023-04-29T09:36:25.655Z,38.80
2023-04-29T09:38:52.287Z,41.13
2023-04-29T09:41:19.980Z,41.73
2023-04-29T09:43:46.581Z,52.80
2023-04-29T09:46:13.222Z,47.03
2023-04-29T09:48:39.980Z,42.87
2023-04-29T09:51:07.066Z,46.00
2023-04-29T09:53:37.840Z,60.83
2023-04-29T09:56:05.246Z,80.47
2023-04-29T09:58:33.873Z,43.73
2023-04-29T10:01:01.704Z,60.17
2023-04-29T10:03:28.541Z,61.97
2023-04-29T10:05:55.403Z,52.20
2023-04-29T10:08:22.394Z,49.17
2023-04-29T10:10:49.966Z,80.30
2023-04-29T10:13:16.484Z,58.40
2023-04-29T10:15:43.206Z,57.47
2023-04-29T10:18:09.950Z,62.97
2023-04-29T10:20:36.774Z,65.57
2023-04-29T10:23:03.621Z,63.33
2023-04-29T10:25:30.200Z,83.83
2023-04-29T10:27:56.911Z,82.60
2023-04-29T10:30:23.502Z,82.03
2023-04-29T10:32:51.986Z,90.60
2023-04-29T10:35:20.085Z,90.53
2023-04-29T10:37:46.787Z,93.00
2023-04-29T10:40:13.706Z,77.67
2023-04-29T10:42:40.301Z,79.93
2023-04-29T10:45:06.878Z,75.57
2023-04-29T10:47:33.560Z,68.73
2023-04-29T10:50:00.933Z,72.13
2023-04-29T10:52:27.454Z,80.80
2023-04-29T10:54:54.027Z,79.83
2023-04-29T10:57:20.654Z,76.10
2023-04-29T10:59:47.719Z,78.13
2023-04-29T11:02:15.880Z,67.30
2023-04-29T11:04:42.424Z,83.80
2023-04-29T11:07:08.992Z,68.93
2023-04-29T11:09:37.009Z,62.70
2023-04-29T11:12:03.962Z,62.07
2023-04-29T11:14:30.704Z,68.83
2023-04-29T11:16:57.551Z,75.43
2023-04-29T11:19:24.431Z,65.80
2023-04-29T11:21:50.947Z,57.33
2023-04-29T11:24:17.636Z,64.23
2023-04-29T11:26:44.498Z,59.43
2023-04-29T11:29:11.078Z,60.90
2023-04-29T11:31:39.351Z,68.50
2023-04-29T11:34:07.088Z,66.83
2023-04-29T11:36:33.667Z,61.63
2023-04-29T11:39:00.355Z,65.30
2023-04-29T11:41:26.930Z,69.57
2023-04-29T11:43:53.477Z,64.77
2023-04-29T11:46:20.260Z,67.73
2023-04-29T11:48:50.059Z,64.87
2023-04-29T11:51:16.660Z,67.90
2023-04-29T11:53:43.295Z,65.83
2023-04-29T11:56:10.245Z,54.57
2023-04-29T11:58:37.067Z,51.57
2023-04-29T12:01:04.336Z,59.30
2023-04-29T12:03:31.226Z,52.23
2023-04-29T12:05:58.006Z,57.70
2023-04-29T12:08:24.533Z,53.53
2023-04-29T12:10:51.359Z,50.60
2023-04-29T12:13:18.089Z,62.33
2023-04-29T12:15:44.744Z,56.10
2023-04-29T12:18:11.480Z,52.17
2023-04-29T12:20:39.166Z,43.57
2023-04-29T12:23:06.298Z,41.93
2023-04-29T12:25:33.001Z,38.47
2023-04-29T12:27:59.516Z,42.77
2023-04-29T12:30:26.078Z,37.33
2023-04-29T12:32:52.870Z,46.03
2023-04-29T12:35:19.449Z,33.60
2023-04-29T12:37:46.094Z,33.03
2023-04-29T12:40:12.934Z,40.87
2023-04-29T12:42:39.437Z,38.03
2023-04-29T12:45:06.586Z,36.67
2023-04-29T12:47:37.134Z,35.80
2023-04-29T12:50:03.979Z,39.37
2023-04-29T12:52:30.512Z,52.80
2023-04-29T12:54:57.510Z,56.87
2023-04-29T12:57:25.137Z,43.00
2023-04-29T12:59:51.760Z,40.90
2023-04-29T13:02:18.404Z,34.83
2023-04-29T13:04:45.176Z,43.40
2023-04-29T13:07:13.079Z,47.13
2023-04-29T13:09:41.732Z,45.23
2023-04-29T13:12:09.541Z,44.70
2023-04-29T13:14:36.429Z,35.60
2023-04-29T13:17:04.042Z,30.87
2023-04-29T13:19:44.048Z,111.97
2023-04-29T13:22:16.606Z,48.00
2023-04-29T13:24:43.198Z,44.17
2023-04-29T13:27:10.867Z,30.07
2023-04-29T13:29:37.524Z,30.37
2023-04-29T13:32:04.139Z,48.87
2023-04-29T13:34:30.923Z,34.10
2023-04-29T13:36:57.533Z,34.73
2023-04-29T13:39:24.490Z,34.70
2023-04-29T13:41:51.511Z,35.80
2023-04-29T13:44:29.367Z,40.77
2023-04-29T13:46:59.848Z,27.83
2023-04-29T13:52:42.839Z,36.90
2023-04-29T13:59:49.959Z,35.70
2023-04-29T14:04:48.616Z,35.30
2023-04-29T14:07:16.029Z,28.03
2023-04-29T14:09:42.576Z,40.13
2023-04-29T14:12:09.100Z,28.70
2023-04-29T14:14:35.604Z,34.47
2023-04-29T14:17:02.244Z,32.90
2023-04-29T14:19:28.864Z,40.70
2023-04-29T14:21:55.545Z,31.20
2023-04-29T14:24:22.439Z,38.70
2023-04-29T14:26:49.063Z,41.97
2023-04-29T14:29:15.601Z,41.00
2023-04-29T14:31:42.419Z,36.90
2023-04-29T14:34:09.498Z,35.13
2023-04-29T14:36:36.033Z,34.83
2023-04-29T14:39:03.848Z,33.30
2023-04-29T14:41:30.554Z,24.37
2023-04-29T14:43:57.252Z,29.67
2023-04-29T14:46:25.144Z,29.43
2023-04-29T14:48:51.767Z,24.20
2023-04-29T14:51:18.272Z,24.50
2023-04-29T14:53:44.812Z,27.37
2023-04-29T14:56:11.405Z,35.43
2023-04-29T14:58:37.921Z,32.33
2023-04-29T15:01:04.465Z,34.47
2023-04-29T15:03:31.783Z,27.23
2023-04-29T15:05:58.764Z,33.33
2023-04-29T15:08:25.466Z,26.30
2023-04-29T15:10:52.068Z,26.20
2023-04-29T15:13:18.898Z,24.87
2023-04-29T15:15:45.612Z,34.37
2023-04-29T15:18:12.224Z,25.80
2023-04-29T15:20:38.836Z,28.23
2023-04-29T15:23:05.663Z,27.43
2023-04-29T15:25:34.417Z,23.40
2023-04-29T15:28:01.187Z,28.87
2023-04-29T15:30:27.743Z,26.50
2023-04-29T15:32:54.446Z,29.87
2023-04-29T15:35:21.093Z,26.17
2023-04-29T15:37:47.762Z,29.27
2023-04-29T15:40:14.343Z,29.63
2023-04-29T15:42:40.897Z,24.87
2023-04-29T15:45:08.748Z,28.00
2023-04-29T15:47:35.451Z,24.07
2023-04-29T15:50:02.066Z,26.00
2023-04-29T15:52:28.627Z,28.67
2023-04-29T15:54:55.280Z,27.77
2023-04-29T15:57:21.882Z,29.20
2023-04-29T15:59:48.441Z,26.87
2023-04-29T16:02:15.266Z,25.57
2023-04-29T16:04:41.876Z,25.10
2023-04-29T16:07:08.414Z,23.73
2023-04-29T16:09:34.971Z,24.03
2023-04-29T16:12:02.173Z,29.20
2023-04-29T16:14:29.889Z,33.43
2023-04-29T16:16:56.633Z,26.47
2023-04-29T16:19:23.268Z,23.80
2023-04-29T16:21:49.799Z,29.00
2023-04-29T16:24:16.341Z,25.50
2023-04-29T16:26:42.941Z,24.60
2023-04-29T16:29:10.056Z,23.30
2023-04-29T16:31:36.627Z,26.00
2023-04-29T16:34:03.402Z,25.03
2023-04-29T16:36:30.182Z,25.43
2023-04-29T16:38:57.849Z,29.63
2023-04-29T16:41:25.932Z,27.20
2023-04-29T16:43:53.493Z,24.50
2023-04-29T16:46:20.108Z,26.47
2023-04-29T16:48:46.647Z,24.30
2023-04-29T16:51:13.176Z,29.73
2023-04-29T16:53:39.748Z,19.70
2023-04-29T16:56:06.443Z,21.10
2023-04-29T16:58:33.032Z,22.47
2023-04-29T17:00:59.825Z,25.80
2023-04-29T17:03:26.439Z,17.90
2023-04-29T17:05:53.206Z,28.53
2023-04-29T17:08:19.998Z,25.40
2023-04-29T17:10:46.698Z,22.27
2023-04-29T17:13:13.212Z,18.70
2023-04-29T17:15:40.279Z,20.17
2023-04-29T17:18:06.995Z,29.57
2023-04-29T17:20:33.945Z,23.43
2023-04-29T17:23:00.483Z,26.63
2023-04-29T17:25:27.026Z,24.70
2023-04-29T17:27:53.524Z,20.03
2023-04-29T17:30:20.111Z,22.50
2023-04-29T17:32:49.319Z,22.77
2023-04-29T17:35:16.097Z,21.20
2023-04-29T17:37:42.798Z,28.80
2023-04-29T17:40:09.684Z,22.43
2023-04-29T17:42:36.395Z,17.93
2023-04-29T17:45:03.048Z,23.40
2023-04-29T17:47:29.650Z,23.13
2023-04-29T17:49:57.693Z,14.90
2023-04-29T17:52:25.493Z,19.43
2023-04-29T17:54:52.055Z,18.80
2023-04-29T17:57:18.575Z,21.70
2023-04-29T17:59:45.408Z,15.93
2023-04-29T18:02:12.073Z,11.43
2023-04-29T18:04:40.485Z,20.03
2023-04-29T18:07:06.997Z,14.63
2023-04-29T18:09:34.723Z,16.30
2023-04-29T18:12:02.233Z,16.23
2023-04-29T18:14:30.503Z,12.87
2023-04-29T18:16:58.600Z,10.30
2023-04-29T18:19:25.238Z,16.50
2023-04-29T18:21:51.807Z,19.03
2023-04-29T18:24:18.396Z,14.30
2023-04-29T18:26:44.925Z,18.40
2023-04-29T18:29:11.481Z,18.43
2023-04-29T18:31:38.127Z,20.43
2023-04-29T18:34:04.879Z,19.03
2023-04-29T18:36:32.003Z,14.60
2023-04-29T18:38:58.920Z,14.30
2023-04-29T18:41:25.688Z,20.50
2023-04-29T18:43:52.208Z,18.20
2023-04-29T18:46:18.871Z,24.57
2023-04-29T18:48:45.632Z,17.93
2023-04-29T18:51:12.191Z,22.83
2023-04-29T18:53:38.985Z,17.27
2023-04-29T18:56:06.455Z,16.13
2023-04-29T18:58:32.989Z,20.23
2023-04-29T19:00:59.898Z,18.50
2023-04-29T19:03:27.098Z,30.93
2023-04-29T19:05:53.689Z,18.73
2023-04-29T19:08:20.436Z,19.50
2023-04-29T19:10:47.137Z,17.83
2023-04-29T19:13:13.752Z,19.47
2023-04-29T19:15:40.821Z,18.30
2023-04-29T19:18:07.414Z,22.50
2023-04-29T19:20:34.016Z,19.57
2023-04-29T19:23:00.768Z,18.50
2023-04-29T19:25:27.266Z,23.30
2023-04-29T19:27:53.901Z,15.73
2023-04-29T19:30:20.432Z,17.83
2023-04-29T19:32:47.548Z,21.10
2023-04-29T19:35:14.246Z,27.10
2023-04-29T19:37:40.911Z,23.97
2023-04-29T19:40:08.987Z,21.47
2023-04-29T19:42:35.565Z,31.87
2023-04-29T19:45:02.459Z,22.80
2023-04-29T19:47:29.173Z,23.27
2023-04-29T19:49:56.004Z,23.93
2023-04-29T19:52:24.529Z,22.20
2023-04-29T19:54:51.199Z,25.90
2023-04-29T19:57:17.869Z,22.03
2023-04-29T19:59:44.557Z,25.43
2023-04-29T20:02:11.638Z,24.47
2023-04-29T20:04:38.343Z,20.50
2023-04-29T20:07:04.868Z,24.03
2023-04-29T20:09:31.972Z,21.10
2023-04-29T20:11:58.579Z,22.30
2023-04-29T20:14:25.729Z,21.00
2023-04-29T20:16:53.089Z,20.10
2023-04-29T20:19:19.832Z,21.50
2023-04-29T20:21:46.458Z,27.90
2023-04-29T20:24:13.093Z,27.70
2023-04-29T20:26:39.743Z,35.70
2023-04-29T20:29:06.361Z,25.77
2023-04-29T20:31:33.138Z,33.70
2023-04-29T20:34:01.293Z,31.30
2023-04-29T20:36:28.524Z,20.77
2023-04-29T20:38:55.054Z,28.17
2023-04-29T20:41:21.641Z,26.37
2023-04-29T20:43:48.483Z,25.97
2023-04-29T20:46:15.865Z,21.97
2023-04-29T20:48:42.570Z,21.40
2023-04-29T20:51:10.355Z,30.47
2023-04-29T20:53:36.948Z,23.63
2023-04-29T20:56:03.578Z,20.67
2023-04-29T20:58:30.163Z,22.63
2023-04-29T21:00:57.315Z,30.67
2023-04-29T21:03:25.898Z,20.33
2023-04-29T21:05:52.874Z,25.57
2023-04-29T21:08:19.400Z,26.80
2023-04-29T21:10:45.930Z,25.47
2023-04-29T21:13:12.496Z,24.60
2023-04-29T21:15:39.012Z,21.80
2023-04-29T21:18:05.911Z,23.70
2023-04-29T21:20:32.486Z,18.60
2023-04-29T21:22:59.563Z,19.80
2023-04-29T21:25:26.106Z,24.30
2023-04-29T21:27:52.656Z,23.87
2023-04-29T21:30:19.270Z,18.60
2023-04-29T21:32:45.837Z,21.60
2023-04-29T21:35:12.402Z,25.83
2023-04-29T21:37:39.036Z,21.47
2023-04-29T21:40:05.613Z,25.63
2023-04-29T21:42:32.264Z,20.83
2023-04-29T21:44:58.857Z,24.80
2023-04-29T21:47:25.448Z,24.83
2023-04-29T21:49:52.344Z,26.07
2023-04-29T21:52:19.023Z,16.07
2023-04-29T21:54:45.594Z,29.73
2023-04-29T21:57:12.157Z,22.70
2023-04-29T21:59:38.702Z,20.53
2023-04-29T22:02:14.851Z,22.60
2023-04-29T22:04:41.832Z,22.87
2023-04-29T22:07:08.884Z,24.93
2023-04-29T22:09:35.434Z,29.03
2023-04-29T22:12:02.938Z,24.07
2023-04-29T22:14:29.753Z,27.10
2023-04-29T22:16:56.261Z,21.93
2023-04-29T22:19:22.844Z,20.90
2023-04-29T22:21:49.405Z,20.20
2023-04-29T22:24:16.162Z,20.57
2023-04-29T22:26:42.784Z,21.60
2023-04-29T22:29:09.318Z,28.80
2023-04-29T22:31:35.899Z,24.10
2023-04-29T22:34:02.544Z,26.10
2023-04-29T22:36:29.260Z,22.10
2023-04-29T22:38:55.922Z,21.73
2023-04-29T22:41:22.473Z,23.80
2023-04-29T22:43:48.968Z,21.90
2023-04-29T22:46:15.542Z,22.40
2023-04-29T22:48:42.192Z,19.93
2023-04-29T22:51:08.766Z,18.80
2023-04-29T22:53:35.381Z,23.30
2023-04-29T22:56:02.195Z,19.93
2023-04-29T22:58:28.854Z,22.23
2023-04-29T23:00:56.421Z,16.93
2023-04-29T23:03:23.180Z,17.90
2023-04-29T23:05:49.796Z,19.13
2023-04-29T23:08:16.305Z,18.83
2023-04-29T23:10:42.882Z,19.67
2023-04-29T23:13:09.425Z,15.60
2023-04-29T23:15:36.075Z,22.03
2023-04-29T23:18:02.657Z,19.87
2023-04-29T23:20:29.197Z,19.90
2023-04-29T23:22:55.742Z,19.63
2023-04-29T23:25:22.331Z,24.80
2023-04-29T23:27:49.002Z,19.70
2023-04-29T23:30:15.545Z,20.07
2023-04-29T23:32:42.102Z,17.87
2023-04-29T23:35:08.611Z,19.20
2023-04-29T23:37:35.413Z,16.40
2023-04-29T23:40:02.090Z,20.10
2023-04-29T23:42:28.736Z,20.40
2023-04-29T23:44:55.268Z,19.23
2023-04-29T23:47:21.953Z,23.43
2023-04-29T23:49:48.568Z,19.13
2023-04-29T23:52:15.298Z,16.80
2023-04-29T23:54:41.839Z,16.17
2023-04-29T23:57:08.391Z,20.33
2023-04-29T23:59:34.956Z,16.70
